sensor_id;sensor_type;location;lat;lon;timestamp;P1;durP1;ratioP1;P2;durP2;ratioP2
59408;SDS011;45213;32.654;-115.458;2022-08-01T00:02:27;11.30;;;2.30;;
59408;SDS011;45213;32.654;-115.458;2022-08-01T00:04:54;21.70;;;2.55;;
59408;SDS011;45213;32.654;-115.458;2022-08-01T00:07:21;13.48;;;2.05;;
59408;SDS011;45213;32.654;-115.458;2022-08-01T00:09:47;16.48;;;2.67;;
59408;SDS011;45213;32.654;-115.458;2022-08-01T00:12:17;19.00;;;2.63;;
59408;SDS011;45213;32.654;-115.458;2022-08-01T00:14:44;13.77;;;3.95;;
59408;SDS011;45213;32.654;-115.458;2022-08-01T00:17:11;20.27;;;8.77;;
59408;SDS011;45213;32.654;-115.458;2022-08-01T00:19:43;15.52;;;10.48;;
59408;SDS011;45213;32.654;-115.458;2022-08-01T00:22:12;15.25;;;7.28;;
59408;SDS011;45213;32.654;-115.458;2022-08-01T00:24:39;13.43;;;3.53;;
59408;SDS011;45213;32.654;-115.458;2022-08-01T00:27:05;14.23;;;2.97;;
59408;SDS011;45213;32.654;-115.458;2022-08-01T00:29:32;12.88;;;2.55;;
59408;SDS011;45213;32.654;-115.458;2022-08-01T00:31:59;6.93;;;2.20;;
59408;SDS011;45213;32.654;-115.458;2022-08-01T00:34:28;7.22;;;2.13;;
59408;SDS011;45213;32.654;-115.458;2022-08-01T00:36:54;6.65;;;1.92;;
59408;SDS011;45213;32.654;-115.458;2022-08-01T00:39:21;4.55;;;1.83;;
59408;SDS011;45213;32.654;-115.458;2022-08-01T00:41:48;9.25;;;1.98;;
59408;SDS011;45213;32.654;-115.458;2022-08-01T00:44:15;10.07;;;2.15;;
59408;SDS011;45213;32.654;-115.458;2022-08-01T00:46:42;7.75;;;1.83;;
59408;SDS011;45213;32.654;-115.458;2022-08-01T00:49:12;7.18;;;1.80;;
59408;SDS011;45213;32.654;-115.458;2022-08-01T00:51:39;6.05;;;1.58;;
59408;SDS011;45213;32.654;-115.458;2022-08-01T00:54:06;7.03;;;2.08;;
59408;SDS011;45213;32.654;-115.458;2022-08-01T00:56:33;11.48;;;2.15;;
59408;SDS011;45213;32.654;-115.458;2022-08-01T00:59:00;8.02;;;1.77;;
59408;SDS011;45213;32.654;-115.458;2022-08-01T01:01:29;7.25;;;1.75;;
59408;SDS011;45213;32.654;-115.458;2022-08-01T01:03:56;12.23;;;2.22;;
59408;SDS011;45213;32.654;-115.458;2022-08-01T01:18:32;5.47;;;1.73;;
59408;SDS011;45213;32.654;-115.458;2022-08-01T01:20:58;5.15;;;1.55;;
59408;SDS011;45213;32.654;-115.458;2022-08-01T01:23:40;9.85;;;1.83;;
59408;SDS011;45213;32.654;-115.458;2022-08-01T01:29:27;5.05;;;1.67;;
59408;SDS011;45213;32.654;-115.458;2022-08-01T01:32:02;7.22;;;1.52;;
59408;SDS011;45213;32.654;-115.458;2022-08-01T01:34:31;5.00;;;1.50;;
59408;SDS011;45213;32.654;-115.458;2022-08-01T01:37:02;7.03;;;1.27;;
59408;SDS011;45213;32.654;-115.458;2022-08-01T01:39:35;5.68;;;1.42;;
59408;SDS011;45213;32.654;-115.458;2022-08-01T01:42:03;7.65;;;1.42;;
59408;SDS011;45213;32.654;-115.458;2022-08-01T01:44:32;10.00;;;1.65;;
59408;SDS011;45213;32.654;-115.458;2022-08-01T01:47:00;5.15;;;1.40;;
59408;SDS011;45213;32.654;-115.458;2022-08-01T01:49:30;6.40;;;1.70;;
59408;SDS011;45213;32.654;-115.458;2022-08-01T01:51:58;9.38;;;2.17;;
59408;SDS011;45213;32.654;-115.458;2022-08-01T01:54:31;3.63;;;1.40;;
59408;SDS011;45213;32.654;-115.458;2022-08-01T01:57:02;7.93;;;1.77;;
59408;SDS011;45213;32.654;-115.458;2022-08-01T01:59:31;6.45;;;1.50;;
59408;SDS011;45213;32.654;-115.458;2022-08-01T02:02:02;9.27;;;1.70;;
59408;SDS011;45213;32.654;-115.458;2022-08-01T02:04:33;7.28;;;1.65;;
59408;SDS011;45213;32.654;-115.458;2022-08-01T02:07:03;6.28;;;1.65;;
59408;SDS011;45213;32.654;-115.458;2022-08-01T02:09:37;7.10;;;1.60;;
59408;SDS011;45213;32.654;-115.458;2022-08-01T02:12:06;4.30;;;1.55;;
59408;SDS011;45213;32.654;-115.458;2022-08-01T02:14:36;6.22;;;1.67;;
59408;SDS011;45213;32.654;-115.458;2022-08-01T02:17:09;7.80;;;1.58;;
59408;SDS011;45213;32.654;-115.458;2022-08-01T02:19:39;3.80;;;1.50;;
59408;SDS011;45213;32.654;-115.458;2022-08-01T02:22:11;4.97;;;1.40;;
59408;SDS011;45213;32.654;-115.458;2022-08-01T02:24:55;15.30;;;2.53;;
59408;SDS011;45213;32.654;-115.458;2022-08-01T02:27:46;8.77;;;1.95;;
59408;SDS011;45213;32.654;-115.458;2022-08-01T02:30:20;5.90;;;2.10;;
59408;SDS011;45213;32.654;-115.458;2022-08-01T02:32:56;11.82;;;1.63;;
59408;SDS011;45213;32.654;-115.458;2022-08-01T02:35:29;6.72;;;1.63;;
59408;SDS011;45213;32.654;-115.458;2022-08-01T02:38:01;7.20;;;1.50;;
59408;SDS011;45213;32.654;-115.458;2022-08-01T02:43:00;8.18;;;2.20;;
59408;SDS011;45213;32.654;-115.458;2022-08-01T02:45:29;6.25;;;1.90;;
59408;SDS011;45213;32.654;-115.458;2022-08-01T02:50:37;9.23;;;1.63;;
59408;SDS011;45213;32.654;-115.458;2022-08-01T02:53:07;7.00;;;1.77;;
59408;SDS011;45213;32.654;-115.458;2022-08-01T02:55:37;6.10;;;1.83;;
59408;SDS011;45213;32.654;-115.458;2022-08-01T02:58:06;12.82;;;2.30;;
59408;SDS011;45213;32.654;-115.458;2022-08-01T03:00:37;9.80;;;1.77;;
59408;SDS011;45213;32.654;-115.458;2022-08-01T03:03:07;9.98;;;2.28;;
59408;SDS011;45213;32.654;-115.458;2022-08-01T03:05:38;11.38;;;2.00;;
59408;SDS011;45213;32.654;-115.458;2022-08-01T03:08:10;12.35;;;2.20;;
59408;SDS011;45213;32.654;-115.458;2022-08-01T03:10:42;9.50;;;2.67;;
59408;SDS011;45213;32.654;-115.458;2022-08-01T03:13:11;11.15;;;2.50;;
59408;SDS011;45213;32.654;-115.458;2022-08-01T03:15:40;6.97;;;1.85;;
59408;SDS011;45213;32.654;-115.458;2022-08-01T03:18:09;14.98;;;2.35;;
59408;SDS011;45213;32.654;-115.458;2022-08-01T03:20:37;8.40;;;2.10;;
59408;SDS011;45213;32.654;-115.458;2022-08-01T03:23:05;16.70;;;2.55;;
59408;SDS011;45213;32.654;-115.458;2022-08-01T03:25:35;11.73;;;2.97;;
59408;SDS011;45213;32.654;-115.458;2022-08-01T03:28:06;9.82;;;2.30;;
59408;SDS011;45213;32.654;-115.458;2022-08-01T03:30:34;4.72;;;2.40;;
59408;SDS011;45213;32.654;-115.458;2022-08-01T03:33:02;14.20;;;3.03;;
59408;SDS011;45213;32.654;-115.458;2022-08-01T03:35:30;14.00;;;2.65;;
59408;SDS011;45213;32.654;-115.458;2022-08-01T03:38:07;9.18;;;2.20;;
59408;SDS011;45213;32.654;-115.458;2022-08-01T03:44:02;7.22;;;2.13;;
59408;SDS011;45213;32.654;-115.458;2022-08-01T03:46:29;8.65;;;2.33;;
59408;SDS011;45213;32.654;-115.458;2022-08-01T03:49:03;9.00;;;2.08;;
59408;SDS011;45213;32.654;-115.458;2022-08-01T03:51:36;8.98;;;2.30;;
59408;SDS011;45213;32.654;-115.458;2022-08-01T03:54:04;8.80;;;2.53;;
59408;SDS011;45213;32.654;-115.458;2022-08-01T03:56:33;8.23;;;2.10;;
59408;SDS011;45213;32.654;-115.458;2022-08-01T03:59:03;10.90;;;2.50;;
59408;SDS011;45213;32.654;-115.458;2022-08-01T04:01:31;6.72;;;1.98;;
59408;SDS011;45213;32.654;-115.458;2022-08-01T04:03:59;7.22;;;2.10;;
59408;SDS011;45213;32.654;-115.458;2022-08-01T04:06:27;6.95;;;2.13;;
59408;SDS011;45213;32.654;-115.458;2022-08-01T04:08:55;6.60;;;2.13;;
59408;SDS011;45213;32.654;-115.458;2022-08-01T04:11:25;5.03;;;1.88;;
59408;SDS011;45213;32.654;-115.458;2022-08-01T04:13:53;9.23;;;2.83;;
59408;SDS011;45213;32.654;-115.458;2022-08-01T04:16:21;4.53;;;2.00;;
59408;SDS011;45213;32.654;-115.458;2022-08-01T04:18:48;10.80;;;2.38;;
59408;SDS011;45213;32.654;-115.458;2022-08-01T04:21:15;10.35;;;2.45;;
59408;SDS011;45213;32.654;-115.458;2022-08-01T04:23:47;8.88;;;2.33;;
59408;SDS011;45213;32.654;-115.458;2022-08-01T04:26:18;6.25;;;2.10;;
59408;SDS011;45213;32.654;-115.458;2022-08-01T04:28:47;7.25;;;2.17;;
59408;SDS011;45213;32.654;-115.458;2022-08-01T04:31:17;5.78;;;2.20;;
59408;SDS011;45213;32.654;-115.458;2022-08-01T04:33:46;9.45;;;2.65;;
59408;SDS011;45213;32.654;-115.458;2022-08-01T04:36:18;14.07;;;2.63;;
59408;SDS011;45213;32.654;-115.458;2022-08-01T04:38:48;7.22;;;3.05;;
59408;SDS011;45213;32.654;-115.458;2022-08-01T04:41:18;10.30;;;3.33;;
59408;SDS011;45213;32.654;-115.458;2022-08-01T04:43:49;13.32;;;3.65;;
59408;SDS011;45213;32.654;-115.458;2022-08-01T04:49:20;6.60;;;2.40;;
59408;SDS011;45213;32.654;-115.458;2022-08-01T04:51:51;6.00;;;2.20;;
59408;SDS011;45213;32.654;-115.458;2022-08-01T04:54:24;8.32;;;2.50;;
59408;SDS011;45213;32.654;-115.458;2022-08-01T04:56:54;6.60;;;2.65;;
59408;SDS011;45213;32.654;-115.458;2022-08-01T04:59:26;5.38;;;2.65;;
59408;SDS011;45213;32.654;-115.458;2022-08-01T05:02:09;6.25;;;2.40;;
59408;SDS011;45213;32.654;-115.458;2022-08-01T05:04:38;7.72;;;2.45;;
59408;SDS011;45213;32.654;-115.458;2022-08-01T05:07:05;6.60;;;2.25;;
59408;SDS011;45213;32.654;-115.458;2022-08-01T05:09:32;6.78;;;2.33;;
59408;SDS011;45213;32.654;-115.458;2022-08-01T05:11:59;8.20;;;2.42;;
59408;SDS011;45213;32.654;-115.458;2022-08-01T05:14:27;5.93;;;2.45;;
59408;SDS011;45213;32.654;-115.458;2022-08-01T05:16:58;7.57;;;2.88;;
59408;SDS011;45213;32.654;-115.458;2022-08-01T05:19:25;6.97;;;2.38;;
59408;SDS011;45213;32.654;-115.458;2022-08-01T05:21:52;6.07;;;2.30;;
59408;SDS011;45213;32.654;-115.458;2022-08-01T05:24:19;7.63;;;2.10;;
59408;SDS011;45213;32.654;-115.458;2022-08-01T05:26:45;8.07;;;3.03;;
59408;SDS011;45213;32.654;-115.458;2022-08-01T05:29:12;7.07;;;2.25;;
59408;SDS011;45213;32.654;-115.458;2022-08-01T05:31:39;11.95;;;2.83;;
59408;SDS011;45213;32.654;-115.458;2022-08-01T05:34:05;12.68;;;2.42;;
59408;SDS011;45213;32.654;-115.458;2022-08-01T05:36:35;5.05;;;2.20;;
59408;SDS011;45213;32.654;-115.458;2022-08-01T05:39:03;8.25;;;2.67;;
59408;SDS011;45213;32.654;-115.458;2022-08-01T05:41:30;6.40;;;2.80;;
59408;SDS011;45213;32.654;-115.458;2022-08-01T05:43:57;5.82;;;2.00;;
59408;SDS011;45213;32.654;-115.458;2022-08-01T05:46:24;6.57;;;2.20;;
59408;SDS011;45213;32.654;-115.458;2022-08-01T05:48:51;6.68;;;2.60;;
59408;SDS011;45213;32.654;-115.458;2022-08-01T05:51:20;8.32;;;2.70;;
59408;SDS011;45213;32.654;-115.458;2022-08-01T05:53:47;5.82;;;2.42;;
59408;SDS011;45213;32.654;-115.458;2022-08-01T05:56:13;6.78;;;2.38;;
59408;SDS011;45213;32.654;-115.458;2022-08-01T05:58:40;8.93;;;2.72;;
59408;SDS011;45213;32.654;-115.458;2022-08-01T06:01:07;9.70;;;3.03;;
59408;SDS011;45213;32.654;-115.458;2022-08-01T06:03:33;9.40;;;2.78;;
59408;SDS011;45213;32.654;-115.458;2022-08-01T06:06:00;9.02;;;2.75;;
59408;SDS011;45213;32.654;-115.458;2022-08-01T06:08:28;8.75;;;3.00;;
59408;SDS011;45213;32.654;-115.458;2022-08-01T06:10:55;10.23;;;2.72;;
59408;SDS011;45213;32.654;-115.458;2022-08-01T06:13:24;11.38;;;3.10;;
59408;SDS011;45213;32.654;-115.458;2022-08-01T06:15:51;8.25;;;3.15;;
59408;SDS011;45213;32.654;-115.458;2022-08-01T06:18:17;12.43;;;3.70;;
59408;SDS011;45213;32.654;-115.458;2022-08-01T06:20:46;7.18;;;3.20;;
59408;SDS011;45213;32.654;-115.458;2022-08-01T06:23:13;12.27;;;3.13;;
59408;SDS011;45213;32.654;-115.458;2022-08-01T06:25:42;9.35;;;3.50;;
59408;SDS011;45213;32.654;-115.458;2022-08-01T06:28:09;10.60;;;3.15;;
59408;SDS011;45213;32.654;-115.458;2022-08-01T06:30:36;9.88;;;3.35;;
59408;SDS011;45213;32.654;-115.458;2022-08-01T06:33:02;12.43;;;4.68;;
59408;SDS011;45213;32.654;-115.458;2022-08-01T06:35:32;5.90;;;3.00;;
59408;SDS011;45213;32.654;-115.458;2022-08-01T06:37:59;8.82;;;2.97;;
59408;SDS011;45213;32.654;-115.458;2022-08-01T06:40:25;8.68;;;3.13;;
59408;SDS011;45213;32.654;-115.458;2022-08-01T06:42:52;10.45;;;3.22;;
59408;SDS011;45213;32.654;-115.458;2022-08-01T06:45:19;8.40;;;3.05;;
59408;SDS011;45213;32.654;-115.458;2022-08-01T06:47:48;6.15;;;2.78;;
59408;SDS011;45213;32.654;-115.458;2022-08-01T06:50:15;7.78;;;3.13;;
59408;SDS011;45213;32.654;-115.458;2022-08-01T06:52:41;11.77;;;3.15;;
59408;SDS011;45213;32.654;-115.458;2022-08-01T06:55:09;9.77;;;3.13;;
59408;SDS011;45213;32.654;-115.458;2022-08-01T06:57:36;9.05;;;3.60;;
59408;SDS011;45213;32.654;-115.458;2022-08-01T07:00:04;6.53;;;2.80;;
59408;SDS011;45213;32.654;-115.458;2022-08-01T07:02:36;6.40;;;3.15;;
59408;SDS011;45213;32.654;-115.458;2022-08-01T07:05:03;6.78;;;2.92;;
59408;SDS011;45213;32.654;-115.458;2022-08-01T07:07:30;9.02;;;2.97;;
59408;SDS011;45213;32.654;-115.458;2022-08-01T07:09:59;8.25;;;2.58;;
59408;SDS011;45213;32.654;-115.458;2022-08-01T07:12:26;10.65;;;3.47;;
59408;SDS011;45213;32.654;-115.458;2022-08-01T07:14:53;8.15;;;2.70;;
59408;SDS011;45213;32.654;-115.458;2022-08-01T07:17:20;6.00;;;2.53;;
59408;SDS011;45213;32.654;-115.458;2022-08-01T07:19:46;8.75;;;2.63;;
59408;SDS011;45213;32.654;-115.458;2022-08-01T07:22:13;8.13;;;2.85;;
59408;SDS011;45213;32.654;-115.458;2022-08-01T07:24:42;7.35;;;2.60;;
59408;SDS011;45213;32.654;-115.458;2022-08-01T07:27:09;7.68;;;2.72;;
59408;SDS011;45213;32.654;-115.458;2022-08-01T07:29:36;7.70;;;2.72;;
59408;SDS011;45213;32.654;-115.458;2022-08-01T07:32:03;9.82;;;2.95;;
59408;SDS011;45213;32.654;-115.458;2022-08-01T07:34:29;8.00;;;3.60;;
59408;SDS011;45213;32.654;-115.458;2022-08-01T07:36:56;7.50;;;3.50;;
59408;SDS011;45213;32.654;-115.458;2022-08-01T07:39:23;11.43;;;3.60;;
59408;SDS011;45213;32.654;-115.458;2022-08-01T07:41:49;9.15;;;3.65;;
59408;SDS011;45213;32.654;-115.458;2022-08-01T07:44:16;8.40;;;3.03;;
59408;SDS011;45213;32.654;-115.458;2022-08-01T07:46:43;9.82;;;3.30;;
59408;SDS011;45213;32.654;-115.458;2022-08-01T07:49:09;8.90;;;2.60;;
59408;SDS011;45213;32.654;-115.458;2022-08-01T07:51:36;7.47;;;2.45;;
59408;SDS011;45213;32.654;-115.458;2022-08-01T07:54:03;7.47;;;2.38;;
59408;SDS011;45213;32.654;-115.458;2022-08-01T07:56:30;11.32;;;3.28;;
59408;SDS011;45213;32.654;-115.458;2022-08-01T07:58:57;12.10;;;3.10;;
59408;SDS011;45213;32.654;-115.458;2022-08-01T08:01:23;10.30;;;2.90;;
59408;SDS011;45213;32.654;-115.458;2022-08-01T08:03:50;4.68;;;2.45;;
59408;SDS011;45213;32.654;-115.458;2022-08-01T08:06:17;14.95;;;3.85;;
59408;SDS011;45213;32.654;-115.458;2022-08-01T08:08:43;8.68;;;2.85;;
59408;SDS011;45213;32.654;-115.458;2022-08-01T08:11:10;7.55;;;2.53;;
59408;SDS011;45213;32.654;-115.458;2022-08-01T08:13:37;7.82;;;2.92;;
59408;SDS011;45213;32.654;-115.458;2022-08-01T08:16:03;9.13;;;3.20;;
59408;SDS011;45213;32.654;-115.458;2022-08-01T08:18:30;9.80;;;3.15;;
59408;SDS011;45213;32.654;-115.458;2022-08-01T08:20:57;6.32;;;3.17;;
59408;SDS011;45213;32.654;-115.458;2022-08-01T08:23:23;11.45;;;3.03;;
59408;SDS011;45213;32.654;-115.458;2022-08-01T08:26:08;13.55;;;3.65;;
59408;SDS011;45213;32.654;-115.458;2022-08-01T08:28:38;9.30;;;3.20;;
59408;SDS011;45213;32.654;-115.458;2022-08-01T08:31:05;8.98;;;3.08;;
59408;SDS011;45213;32.654;-115.458;2022-08-01T08:33:32;9.80;;;3.47;;
59408;SDS011;45213;32.654;-115.458;2022-08-01T08:35:59;10.65;;;3.42;;
59408;SDS011;45213;32.654;-115.458;2022-08-01T08:38:25;10.88;;;3.10;;
59408;SDS011;45213;32.654;-115.458;2022-08-01T08:40:53;11.75;;;3.35;;
59408;SDS011;45213;32.654;-115.458;2022-08-01T08:43:19;11.18;;;3.13;;
59408;SDS011;45213;32.654;-115.458;2022-08-01T08:45:47;11.73;;;3.35;;
59408;SDS011;45213;32.654;-115.458;2022-08-01T08:48:14;9.73;;;2.83;;
59408;SDS011;45213;32.654;-115.458;2022-08-01T08:50:42;9.30;;;3.22;;
59408;SDS011;45213;32.654;-115.458;2022-08-01T08:53:11;7.80;;;3.30;;
59408;SDS011;45213;32.654;-115.458;2022-08-01T08:55:43;8.48;;;2.70;;
59408;SDS011;45213;32.654;-115.458;2022-08-01T08:58:11;8.77;;;3.10;;
59408;SDS011;45213;32.654;-115.458;2022-08-01T09:00:39;9.45;;;3.10;;
59408;SDS011;45213;32.654;-115.458;2022-08-01T09:03:06;9.90;;;3.35;;
59408;SDS011;45213;32.654;-115.458;2022-08-01T09:05:33;8.07;;;3.35;;
59408;SDS011;45213;32.654;-115.458;2022-08-01T09:08:00;11.68;;;3.47;;
59408;SDS011;45213;32.654;-115.458;2022-08-01T09:10:27;10.93;;;3.45;;
59408;SDS011;45213;32.654;-115.458;2022-08-01T09:15:44;10.65;;;3.42;;
59408;SDS011;45213;32.654;-115.458;2022-08-01T09:18:29;12.15;;;3.40;;
59408;SDS011;45213;32.654;-115.458;2022-08-01T09:21:17;10.77;;;3.33;;
59408;SDS011;45213;32.654;-115.458;2022-08-01T09:23:49;10.25;;;3.20;;
59408;SDS011;45213;32.654;-115.458;2022-08-01T09:26:18;8.90;;;3.15;;
59408;SDS011;45213;32.654;-115.458;2022-08-01T09:28:47;10.57;;;3.63;;
59408;SDS011;45213;32.654;-115.458;2022-08-01T09:31:15;9.45;;;3.17;;
59408;SDS011;45213;32.654;-115.458;2022-08-01T09:33:48;13.45;;;3.75;;
59408;SDS011;45213;32.654;-115.458;2022-08-01T09:36:19;11.30;;;3.58;;
59408;SDS011;45213;32.654;-115.458;2022-08-01T09:38:51;9.80;;;3.40;;
59408;SDS011;45213;32.654;-115.458;2022-08-01T09:41:28;10.35;;;3.30;;
59408;SDS011;45213;32.654;-115.458;2022-08-01T09:43:57;7.28;;;3.45;;
59408;SDS011;45213;32.654;-115.458;2022-08-01T09:46:24;11.27;;;3.67;;
59408;SDS011;45213;32.654;-115.458;2022-08-01T09:51:29;9.48;;;3.38;;
59408;SDS011;45213;32.654;-115.458;2022-08-01T09:53:59;15.60;;;3.90;;
59408;SDS011;45213;32.654;-115.458;2022-08-01T09:57:07;9.30;;;3.50;;
59408;SDS011;45213;32.654;-115.458;2022-08-01T09:59:36;8.57;;;3.42;;
59408;SDS011;45213;32.654;-115.458;2022-08-01T10:02:52;14.02;;;3.65;;
59408;SDS011;45213;32.654;-115.458;2022-08-01T10:04:57;8.43;;;3.55;;
59408;SDS011;45213;32.654;-115.458;2022-08-01T10:07:26;13.95;;;3.95;;
59408;SDS011;45213;32.654;-115.458;2022-08-01T10:09:52;11.90;;;3.65;;
59408;SDS011;45213;32.654;-115.458;2022-08-01T10:12:21;12.63;;;3.50;;
59408;SDS011;45213;32.654;-115.458;2022-08-01T10:14:51;13.13;;;3.70;;
59408;SDS011;45213;32.654;-115.458;2022-08-01T10:17:20;8.88;;;3.60;;
59408;SDS011;45213;32.654;-115.458;2022-08-01T10:19:51;10.20;;;3.45;;
59408;SDS011;45213;32.654;-115.458;2022-08-01T10:22:20;7.97;;;3.42;;
59408;SDS011;45213;32.654;-115.458;2022-08-01T10:24:54;9.85;;;3.40;;
59408;SDS011;45213;32.654;-115.458;2022-08-01T10:27:23;10.15;;;3.45;;
59408;SDS011;45213;32.654;-115.458;2022-08-01T10:29:58;11.32;;;3.50;;
59408;SDS011;45213;32.654;-115.458;2022-08-01T10:32:34;12.00;;;3.60;;
59408;SDS011;45213;32.654;-115.458;2022-08-01T10:35:02;9.93;;;3.35;;
59408;SDS011;45213;32.654;-115.458;2022-08-01T10:37:32;14.20;;;3.88;;
59408;SDS011;45213;32.654;-115.458;2022-08-01T10:40:01;9.52;;;3.13;;
59408;SDS011;45213;32.654;-115.458;2022-08-01T10:42:28;11.00;;;3.55;;
59408;SDS011;45213;32.654;-115.458;2022-08-01T10:44:55;10.43;;;3.53;;
59408;SDS011;45213;32.654;-115.458;2022-08-01T10:47:35;12.15;;;4.07;;
59408;SDS011;45213;32.654;-115.458;2022-08-01T10:50:28;15.90;;;3.30;;
59408;SDS011;45213;32.654;-115.458;2022-08-01T10:53:10;11.00;;;3.17;;
59408;SDS011;45213;32.654;-115.458;2022-08-01T10:55:45;11.10;;;3.08;;
59408;SDS011;45213;32.654;-115.458;2022-08-01T10:58:24;9.05;;;3.58;;
59408;SDS011;45213;32.654;-115.458;2022-08-01T11:09:27;11.07;;;3.40;;
59408;SDS011;45213;32.654;-115.458;2022-08-01T11:11:58;14.45;;;3.50;;
59408;SDS011;45213;32.654;-115.458;2022-08-01T11:14:25;10.13;;;3.00;;
59408;SDS011;45213;32.654;-115.458;2022-08-01T11:16:52;10.43;;;3.70;;
59408;SDS011;45213;32.654;-115.458;2022-08-01T11:19:19;12.57;;;3.20;;
59408;SDS011;45213;32.654;-115.458;2022-08-01T11:30:21;10.32;;;3.03;;
59408;SDS011;45213;32.654;-115.458;2022-08-01T11:32:46;16.10;;;4.28;;
59408;SDS011;45213;32.654;-115.458;2022-08-01T11:35:24;9.20;;;3.13;;
59408;SDS011;45213;32.654;-115.458;2022-08-01T11:37:54;11.57;;;3.65;;
59408;SDS011;45213;32.654;-115.458;2022-08-01T11:40:26;9.15;;;2.95;;
59408;SDS011;45213;32.654;-115.458;2022-08-01T11:45:52;11.40;;;3.15;;
59408;SDS011;45213;32.654;-115.458;2022-08-01T11:48:22;11.07;;;3.70;;
59408;SDS011;45213;32.654;-115.458;2022-08-01T11:50:54;6.78;;;3.38;;
59408;SDS011;45213;32.654;-115.458;2022-08-01T11:53:21;9.15;;;3.78;;
59408;SDS011;45213;32.654;-115.458;2022-08-01T11:55:50;8.90;;;3.45;;
59408;SDS011;45213;32.654;-115.458;2022-08-01T11:58:24;12.35;;;3.38;;
59408;SDS011;45213;32.654;-115.458;2022-08-01T12:05:56;11.98;;;3.72;;
59408;SDS011;45213;32.654;-115.458;2022-08-01T12:08:26;10.73;;;3.35;;
59408;SDS011;45213;32.654;-115.458;2022-08-01T12:10:55;8.00;;;3.47;;
59408;SDS011;45213;32.654;-115.458;2022-08-01T12:13:21;10.25;;;3.35;;
59408;SDS011;45213;32.654;-115.458;2022-08-01T12:15:48;9.50;;;2.92;;
59408;SDS011;45213;32.654;-115.458;2022-08-01T12:18:19;10.50;;;3.50;;
59408;SDS011;45213;32.654;-115.458;2022-08-01T12:20:46;9.98;;;2.90;;
59408;SDS011;45213;32.654;-115.458;2022-08-01T12:23:14;11.95;;;3.50;;
59408;SDS011;45213;32.654;-115.458;2022-08-01T12:25:41;11.27;;;3.60;;
59408;SDS011;45213;32.654;-115.458;2022-08-01T12:28:16;10.68;;;3.42;;
59408;SDS011;45213;32.654;-115.458;2022-08-01T12:30:46;9.82;;;3.28;;
59408;SDS011;45213;32.654;-115.458;2022-08-01T12:33:17;10.30;;;3.45;;
59408;SDS011;45213;32.654;-115.458;2022-08-01T12:35:44;13.57;;;3.47;;
59408;SDS011;45213;32.654;-115.458;2022-08-01T12:38:16;16.38;;;4.47;;
59408;SDS011;45213;32.654;-115.458;2022-08-01T12:40:48;13.13;;;4.63;;
59408;SDS011;45213;32.654;-115.458;2022-08-01T12:43:18;9.90;;;4.05;;
59408;SDS011;45213;32.654;-115.458;2022-08-01T12:45:47;10.63;;;3.75;;
59408;SDS011;45213;32.654;-115.458;2022-08-01T12:48:16;12.25;;;4.40;;
59408;SDS011;45213;32.654;-115.458;2022-08-01T12:50:45;10.73;;;4.03;;
59408;SDS011;45213;32.654;-115.458;2022-08-01T12:53:13;9.48;;;4.38;;
59408;SDS011;45213;32.654;-115.458;2022-08-01T12:55:48;13.90;;;3.80;;
59408;SDS011;45213;32.654;-115.458;2022-08-01T12:58:17;11.43;;;3.35;;
59408;SDS011;45213;32.654;-115.458;2022-08-01T13:00:45;9.73;;;3.28;;
59408;SDS011;45213;32.654;-115.458;2022-08-01T13:03:18;10.25;;;4.00;;
59408;SDS011;45213;32.654;-115.458;2022-08-01T13:08:20;12.55;;;3.55;;
59408;SDS011;45213;32.654;-115.458;2022-08-01T13:11:06;9.25;;;3.55;;
59408;SDS011;45213;32.654;-115.458;2022-08-01T13:16:08;9.75;;;3.33;;
59408;SDS011;45213;32.654;-115.458;2022-08-01T13:18:38;9.63;;;3.25;;
59408;SDS011;45213;32.654;-115.458;2022-08-01T13:26:03;7.45;;;3.70;;
59408;SDS011;45213;32.654;-115.458;2022-08-01T13:28:30;11.68;;;3.63;;
59408;SDS011;45213;32.654;-115.458;2022-08-01T13:30:59;14.70;;;4.32;;
59408;SDS011;45213;32.654;-115.458;2022-08-01T13:33:28;10.10;;;3.80;;
59408;SDS011;45213;32.654;-115.458;2022-08-01T13:36:09;9.43;;;3.83;;
59408;SDS011;45213;32.654;-115.458;2022-08-01T13:38:36;14.27;;;4.20;;
59408;SDS011;45213;32.654;-115.458;2022-08-01T13:41:21;12.00;;;3.42;;
59408;SDS011;45213;32.654;-115.458;2022-08-01T13:43:48;12.55;;;3.45;;
59408;SDS011;45213;32.654;-115.458;2022-08-01T13:46:15;12.32;;;3.67;;
59408;SDS011;45213;32.654;-115.458;2022-08-01T13:48:42;14.70;;;3.47;;
59408;SDS011;45213;32.654;-115.458;2022-08-01T13:51:09;10.57;;;3.67;;
59408;SDS011;45213;32.654;-115.458;2022-08-01T13:53:35;11.18;;;3.42;;
59408;SDS011;45213;32.654;-115.458;2022-08-01T13:56:02;12.75;;;3.42;;
59408;SDS011;45213;32.654;-115.458;2022-08-01T13:58:29;11.20;;;3.55;;
59408;SDS011;45213;32.654;-115.458;2022-08-01T14:00:56;11.07;;;3.55;;
59408;SDS011;45213;32.654;-115.458;2022-08-01T14:03:22;12.98;;;3.90;;
59408;SDS011;45213;32.654;-115.458;2022-08-01T14:05:49;9.27;;;3.55;;
59408;SDS011;45213;32.654;-115.458;2022-08-01T14:08:16;12.10;;;3.47;;
59408;SDS011;45213;32.654;-115.458;2022-08-01T14:10:42;11.73;;;3.17;;
59408;SDS011;45213;32.654;-115.458;2022-08-01T14:13:09;15.35;;;3.67;;
59408;SDS011;45213;32.654;-115.458;2022-08-01T14:15:36;14.02;;;3.20;;
59408;SDS011;45213;32.654;-115.458;2022-08-01T14:18:02;11.40;;;3.05;;
59408;SDS011;45213;32.654;-115.458;2022-08-01T14:20:29;10.35;;;3.47;;
59408;SDS011;45213;32.654;-115.458;2022-08-01T14:22:56;14.05;;;3.92;;
59408;SDS011;45213;32.654;-115.458;2022-08-01T14:25:22;15.32;;;3.88;;
59408;SDS011;45213;32.654;-115.458;2022-08-01T14:27:49;14.00;;;4.00;;
59408;SDS011;45213;32.654;-115.458;2022-08-01T14:30:16;15.50;;;4.15;;
59408;SDS011;45213;32.654;-115.458;2022-08-01T14:32:42;10.68;;;4.00;;
59408;SDS011;45213;32.654;-115.458;2022-08-01T14:35:09;8.18;;;3.45;;
59408;SDS011;45213;32.654;-115.458;2022-08-01T14:37:36;43.03;;;5.40;;
59408;SDS011;45213;32.654;-115.458;2022-08-01T14:40:03;12.00;;;3.50;;
59408;SDS011;45213;32.654;-115.458;2022-08-01T14:42:35;10.57;;;3.65;;
59408;SDS011;45213;32.654;-115.458;2022-08-01T14:45:02;10.80;;;3.55;;
59408;SDS011;45213;32.654;-115.458;2022-08-01T14:47:34;9.82;;;3.63;;
59408;SDS011;45213;32.654;-115.458;2022-08-01T14:50:03;14.52;;;3.90;;
59408;SDS011;45213;32.654;-115.458;2022-08-01T14:52:32;11.40;;;3.78;;
59408;SDS011;45213;32.654;-115.458;2022-08-01T14:54:59;12.95;;;4.38;;
59408;SDS011;45213;32.654;-115.458;2022-08-01T14:57:26;17.35;;;4.13;;
59408;SDS011;45213;32.654;-115.458;2022-08-01T14:59:53;9.43;;;3.58;;
59408;SDS011;45213;32.654;-115.458;2022-08-01T15:02:19;11.52;;;3.88;;
59408;SDS011;45213;32.654;-115.458;2022-08-01T15:04:47;11.57;;;3.88;;
59408;SDS011;45213;32.654;-115.458;2022-08-01T15:07:15;13.55;;;4.75;;
59408;SDS011;45213;32.654;-115.458;2022-08-01T15:09:45;15.15;;;5.00;;
59408;SDS011;45213;32.654;-115.458;2022-08-01T15:12:11;12.23;;;4.18;;
59408;SDS011;45213;32.654;-115.458;2022-08-01T15:14:38;15.35;;;4.72;;
59408;SDS011;45213;32.654;-115.458;2022-08-01T15:17:22;14.52;;;4.70;;
59408;SDS011;45213;32.654;-115.458;2022-08-01T15:19:52;27.13;;;5.68;;
59408;SDS011;45213;32.654;-115.458;2022-08-01T15:22:20;19.15;;;5.30;;
59408;SDS011;45213;32.654;-115.458;2022-08-01T15:24:48;15.55;;;4.85;;